createdAt,value
2023-03-01T00:02:14.488Z,-3.83
2023-03-01T00:05:26.749Z,-3.84
2023-03-01T00:08:27.407Z,-3.85
2023-03-01T00:11:48.732Z,-3.86
2023-03-01T00:14:51.462Z,-3.86
2023-03-01T00:17:54.558Z,-3.86
2023-03-01T00:20:56.761Z,-3.86
2023-03-01T00:24:03.547Z,-3.84
2023-03-01T00:27:09.476Z,-3.85
2023-03-01T00:30:12.445Z,-3.85
2023-03-01T00:33:14.656Z,-3.85
2023-03-01T00:36:17.151Z,-3.85
2023-03-01T00:39:19.477Z,-3.86
2023-03-01T00:42:27.755Z,-3.85
2023-03-01T00:45:27.527Z,-3.84
2023-03-01T00:48:32.801Z,-3.81
2023-03-01T00:51:43.588Z,-3.81
2023-03-01T00:54:49.071Z,-3.79
2023-03-01T00:58:01.685Z,-3.78
2023-03-01T01:01:12.713Z,-3.77
2023-03-01T01:04:19.517Z,-3.74
2023-03-01T01:07:24.488Z,-3.72
2023-03-01T01:10:29.530Z,-3.72
2023-03-01T01:13:40.844Z,-3.72
2023-03-01T01:16:41.738Z,-3.71
2023-03-01T01:19:42.554Z,-3.71
2023-03-01T01:22:43.610Z,-3.72
2023-03-01T01:25:44.570Z,-3.72
2023-03-01T01:28:47.713Z,-3.73
2023-03-01T01:31:52.558Z,-3.73
2023-03-01T01:34:55.573Z,-3.72
2023-03-01T01:37:57.572Z,-3.72
2023-03-01T01:41:01.602Z,-3.72
2023-03-01T01:44:25.755Z,-3.71
2023-03-01T01:47:36.707Z,-3.69
2023-03-01T01:50:45.718Z,-3.68
2023-03-01T01:53:46.642Z,-3.66
2023-03-01T01:56:47.583Z,-3.66
2023-03-01T01:59:49.628Z,-3.66
2023-03-01T02:02:51.822Z,-3.65
2023-03-01T02:06:01.869Z,-3.65
2023-03-01T02:09:06.642Z,-3.65
2023-03-01T02:12:17.678Z,-3.66
2023-03-01T02:15:21.651Z,-3.66
2023-03-01T02:18:23.630Z,-3.67
2023-03-01T02:21:41.658Z,-3.67
2023-03-01T02:24:50.042Z,-3.66
2023-03-01T02:28:24.703Z,-3.64
2023-03-01T02:31:47.693Z,-3.63
2023-03-01T02:34:55.800Z,-3.62
2023-03-01T02:37:59.781Z,-3.59
2023-03-01T02:41:01.659Z,-3.59
2023-03-01T02:44:07.652Z,-3.59
2023-03-01T02:47:10.702Z,-3.57
2023-03-01T02:50:16.694Z,-3.57
2023-03-01T02:53:50.682Z,-3.56
2023-03-01T02:56:56.921Z,-3.57
2023-03-01T03:00:00.044Z,-3.55
2023-03-01T03:03:05.710Z,-3.55
2023-03-01T03:06:07.706Z,-3.56
2023-03-01T03:09:16.704Z,-3.54
2023-03-01T03:12:22.684Z,-3.52
2023-03-01T03:15:24.771Z,-3.49
2023-03-01T03:18:33.383Z,-3.48
2023-03-01T03:21:35.735Z,-3.47
2023-03-01T03:24:46.729Z,-3.48
2023-03-01T03:27:56.762Z,-3.49
2023-03-01T03:30:58.840Z,-3.50
2023-03-01T03:34:01.994Z,-3.48
2023-03-01T03:37:07.854Z,-3.49
2023-03-01T03:40:10.984Z,-3.50
2023-03-01T03:43:10.739Z,-3.48
2023-03-01T03:46:13.165Z,-3.47
2023-03-01T03:49:19.633Z,-3.47
2023-03-01T03:52:22.095Z,-3.48
2023-03-01T03:55:25.795Z,-3.49
2023-03-01T03:58:26.788Z,-3.51
2023-03-01T04:01:29.018Z,-3.50
2023-03-01T04:04:36.348Z,-3.53
2023-03-01T04:07:38.290Z,-3.51
2023-03-01T04:10:38.961Z,-3.51
2023-03-01T04:13:47.169Z,-3.50
2023-03-01T04:16:49.918Z,-3.50
2023-03-01T04:20:01.208Z,-3.50
2023-03-01T04:23:18.089Z,-3.50
2023-03-01T04:26:38.529Z,-3.50
2023-03-01T04:29:39.126Z,-3.51
2023-03-01T04:32:48.660Z,-3.51
2023-03-01T04:35:51.953Z,-3.51
2023-03-01T04:39:03.355Z,-3.50
2023-03-01T04:42:19.454Z,-3.50
2023-03-01T04:45:27.864Z,-3.51
2023-03-01T04:48:41.381Z,-3.49
2023-03-01T04:52:00.915Z,-3.47
2023-03-01T04:55:03.969Z,-3.45
2023-03-01T04:58:06.966Z,-3.42
2023-03-01T05:01:08.991Z,-3.35
2023-03-01T05:04:14.224Z,-3.25
2023-03-01T05:07:15.952Z,-3.14
2023-03-01T05:10:22.894Z,-3.04
2023-03-01T05:13:33.408Z,-2.97
2023-03-01T05:16:38.848Z,-2.87
2023-03-01T05:19:42.147Z,-2.80
2023-03-01T05:22:45.098Z,-2.74
2023-03-01T05:25:48.186Z,-2.70
2023-03-01T05:28:49.048Z,-2.68
2023-03-01T05:31:52.993Z,-2.67
2023-03-01T05:34:58.388Z,-2.63
2023-03-01T05:38:00.963Z,-2.58
2023-03-01T05:41:01.568Z,-2.55
2023-03-01T05:44:12.728Z,-2.52
2023-03-01T05:47:30.787Z,-2.44
2023-03-01T05:50:39.890Z,-2.39
2023-03-01T05:53:46.413Z,-2.29
2023-03-01T05:56:50.041Z,-2.19
2023-03-01T05:59:53.528Z,-2.15
2023-03-01T06:06:17.458Z,-2.08
2023-03-01T06:09:22.605Z,-2.06
2023-03-01T06:12:49.541Z,-2.04
2023-03-01T06:15:54.700Z,-2.02
2023-03-01T06:19:07.404Z,-1.99
2023-03-01T06:22:11.291Z,-1.92
2023-03-01T06:25:15.878Z,-1.85
2023-03-01T06:28:18.971Z,-1.80
2023-03-01T06:31:27.533Z,-1.73
2023-03-01T06:34:33.563Z,-1.69
2023-03-01T06:37:47.397Z,-1.62
2023-03-01T06:40:53.726Z,-1.56
2023-03-01T06:43:59.062Z,-1.54
2023-03-01T06:47:01.197Z,-1.54
2023-03-01T06:50:08.212Z,-1.49
2023-03-01T06:53:13.323Z,-1.44
2023-03-01T06:56:22.055Z,-1.39
2023-03-01T06:59:22.317Z,-1.32
2023-03-01T07:02:27.304Z,-1.29
2023-03-01T07:05:28.568Z,-1.23
2023-03-01T07:08:37.180Z,-1.18
2023-03-01T07:11:38.242Z,-1.14
2023-03-01T07:14:43.174Z,-1.07
2023-03-01T07:17:43.245Z,-0.97
2023-03-01T07:24:14.509Z,0.14
2023-03-01T07:27:20.706Z,0.85
2023-03-01T07:30:25.107Z,1.18
2023-03-01T07:33:26.264Z,1.13
2023-03-01T07:36:29.602Z,0.94
2023-03-01T07:39:34.380Z,0.84
2023-03-01T07:42:35.223Z,0.74
2023-03-01T07:45:58.726Z,0.55
2023-03-01T07:49:01.204Z,0.44
2023-03-01T07:52:03.233Z,0.43
2023-03-01T07:55:05.253Z,0.40
2023-03-01T07:58:08.194Z,0.46
2023-03-01T08:01:21.513Z,0.59
2023-03-01T08:04:27.266Z,0.77
2023-03-01T08:07:29.230Z,0.90
2023-03-01T08:10:33.281Z,1.05
2023-03-01T08:13:37.051Z,1.27
2023-03-01T08:16:38.386Z,1.41
2023-03-01T08:19:41.377Z,1.45
2023-03-01T08:22:44.256Z,1.46
2023-03-01T08:25:47.259Z,1.48
2023-03-01T08:28:49.715Z,1.55
2023-03-01T08:35:14.862Z,1.85
2023-03-01T08:38:19.414Z,2.03
2023-03-01T08:41:25.608Z,2.32
2023-03-01T08:44:32.680Z,2.58
2023-03-01T08:47:35.985Z,2.81
2023-03-01T08:50:34.827Z,2.99
2023-03-01T08:53:38.513Z,3.18
2023-03-01T08:56:46.192Z,3.18
2023-03-01T08:59:47.410Z,3.05
2023-03-01T09:02:50.337Z,3.04
2023-03-01T09:05:53.344Z,2.96
2023-03-01T09:09:05.721Z,3.25
2023-03-01T09:12:10.342Z,4.03
2023-03-01T09:15:15.986Z,4.60
2023-03-01T09:18:17.327Z,5.01
2023-03-01T09:21:41.425Z,5.33
2023-03-01T09:24:43.534Z,5.35
2023-03-01T09:27:52.748Z,5.29
2023-03-01T09:30:56.239Z,5.56
2023-03-01T09:34:04.365Z,6.02
2023-03-01T09:37:11.700Z,6.51
2023-03-01T09:40:12.381Z,6.87
2023-03-01T09:43:18.049Z,7.18
2023-03-01T09:46:24.456Z,7.26
2023-03-01T09:49:42.390Z,7.14
2023-03-01T09:52:53.451Z,6.86
2023-03-01T09:56:14.381Z,6.39
2023-03-01T09:59:24.788Z,6.17
2023-03-01T10:02:36.409Z,6.20
2023-03-01T10:05:51.492Z,6.39
2023-03-01T10:09:08.576Z,6.43
2023-03-01T10:12:36.435Z,6.21
2023-03-01T10:15:59.792Z,6.49
2023-03-01T10:19:08.751Z,7.21
2023-03-01T10:22:30.517Z,7.54
2023-03-01T10:25:52.689Z,7.23
2023-03-01T10:29:03.730Z,6.93
2023-03-01T10:32:07.723Z,7.18
2023-03-01T10:35:09.595Z,7.35
2023-03-01T10:38:25.841Z,7.35
2023-03-01T10:41:34.658Z,7.25
2023-03-01T10:45:04.154Z,6.97
2023-03-01T10:48:33.466Z,6.67
2023-03-01T10:51:35.597Z,6.24
2023-03-01T10:54:47.688Z,5.86
2023-03-01T10:58:11.078Z,5.34
2023-03-01T11:01:13.774Z,4.65
2023-03-01T11:04:39.506Z,4.18
2023-03-01T11:07:47.564Z,3.81
2023-03-01T11:10:50.526Z,3.58
2023-03-01T11:14:37.554Z,3.38
2023-03-01T11:18:14.108Z,3.23
2023-03-01T11:21:15.943Z,3.10
2023-03-01T11:24:16.573Z,3.05
2023-03-01T11:27:22.640Z,3.05
2023-03-01T11:31:06.776Z,3.01
2023-03-01T11:34:52.596Z,2.98
2023-03-01T11:38:15.904Z,2.96
2023-03-01T11:41:28.711Z,2.94
2023-03-01T11:44:39.908Z,2.89
2023-03-01T11:48:08.904Z,2.82
2023-03-01T11:51:17.605Z,2.77
2023-03-01T11:54:40.684Z,2.75
2023-03-01T11:58:20.833Z,2.69
2023-03-01T12:01:45.388Z,2.69
2023-03-01T12:05:11.699Z,2.69
2023-03-01T12:08:53.815Z,2.69
2023-03-01T12:12:08.606Z,2.67
2023-03-01T12:15:40.083Z,2.69
2023-03-01T12:19:33.596Z,2.71
2023-03-01T12:22:46.691Z,2.69
2023-03-01T12:26:28.376Z,2.73
2023-03-01T12:29:41.853Z,2.72
2023-03-01T12:33:18.579Z,2.75
2023-03-01T12:36:37.835Z,2.72
2023-03-01T12:40:03.694Z,2.68
2023-03-01T12:43:42.932Z,2.56
2023-03-01T12:47:02.715Z,2.50
2023-03-01T12:50:35.751Z,2.47
2023-03-01T12:54:11.036Z,2.45
2023-03-01T12:57:25.048Z,2.49
2023-03-01T13:00:51.467Z,2.48
2023-03-01T13:43:11.999Z,2.02
2023-03-01T13:46:20.974Z,1.91
2023-03-01T13:49:44.371Z,1.79
2023-03-01T13:53:12.792Z,1.67
2023-03-01T13:56:41.004Z,1.63
2023-03-01T13:59:49.272Z,1.64
2023-03-01T14:03:05.695Z,1.67
2023-03-01T14:06:21.836Z,1.69
2023-03-01T14:09:46.288Z,1.73
2023-03-01T14:13:25.985Z,1.78
2023-03-01T14:17:08.411Z,1.81
2023-03-01T14:23:58.625Z,1.83
2023-03-01T14:27:11.910Z,1.83
2023-03-01T14:30:27.629Z,1.83
2023-03-01T14:33:37.655Z,1.84
2023-03-01T14:37:04.841Z,1.84
2023-03-01T14:40:21.963Z,1.86
2023-03-01T14:43:28.952Z,1.88
2023-03-01T14:46:44.914Z,1.91
2023-03-01T14:49:50.732Z,1.94
2023-03-01T14:52:57.443Z,1.97
2023-03-01T14:56:09.946Z,1.95
2023-03-01T14:59:11.899Z,1.93
2023-03-01T15:02:16.118Z,1.92
2023-03-01T15:05:29.793Z,1.91
2023-03-01T15:08:43.030Z,1.89
2023-03-01T15:11:48.263Z,1.89
2023-03-01T15:15:04.368Z,1.89
2023-03-01T15:18:19.976Z,1.87
2023-03-01T15:21:38.214Z,1.84
2023-03-01T15:24:48.410Z,1.83
2023-03-01T15:27:52.935Z,1.81
2023-03-01T15:31:42.498Z,1.79
2023-03-01T15:35:04.535Z,1.77
2023-03-01T15:38:18.556Z,1.74
2023-03-01T15:45:34.025Z,1.67
2023-03-01T15:48:47.523Z,1.63
2023-03-01T15:51:59.804Z,1.59
2023-03-01T15:55:04.226Z,1.54
2023-03-01T15:58:30.305Z,1.51
2023-03-01T16:01:35.002Z,1.51
2023-03-01T16:05:01.303Z,1.49
2023-03-01T16:08:13.651Z,1.43
2023-03-01T16:11:51.298Z,1.31
2023-03-01T16:14:56.242Z,1.18
2023-03-01T16:18:00.137Z,1.07
2023-03-01T16:21:02.250Z,0.99
2023-03-01T16:24:05.023Z,0.93
2023-03-01T16:27:06.162Z,0.86
2023-03-01T16:30:07.088Z,0.84
2023-03-01T16:33:25.235Z,0.85
2023-03-01T16:36:34.097Z,0.88
2023-03-01T16:39:38.303Z,0.93
2023-03-01T16:42:40.686Z,0.99
2023-03-01T16:45:47.184Z,1.00
2023-03-01T16:48:53.083Z,1.01
2023-03-01T16:51:58.280Z,0.99
2023-03-01T16:55:04.393Z,0.96
2023-03-01T16:58:06.087Z,0.96
2023-03-01T17:01:08.841Z,0.94
2023-03-01T17:04:14.808Z,0.94
2023-03-01T17:07:17.112Z,0.93
2023-03-01T17:10:25.117Z,0.92
2023-03-01T17:13:26.169Z,0.89
2023-03-01T17:16:29.679Z,0.88
2023-03-01T17:19:31.524Z,0.89
2023-03-01T17:22:34.448Z,0.87
2023-03-01T17:25:43.175Z,0.84
2023-03-01T17:28:45.234Z,0.79
2023-03-01T17:31:51.796Z,0.74
2023-03-01T17:34:56.172Z,0.68
2023-03-01T17:37:59.189Z,0.59
2023-03-01T17:41:02.035Z,0.49
2023-03-01T17:44:04.183Z,0.40
2023-03-01T17:47:07.187Z,0.29
2023-03-01T17:50:11.275Z,0.18
2023-03-01T17:53:16.354Z,0.09
2023-03-01T17:56:27.635Z,-0.01
2023-03-01T17:59:37.258Z,-0.08
2023-03-01T18:02:37.426Z,-0.14
2023-03-01T18:05:41.656Z,-0.20
2023-03-01T18:08:45.404Z,-0.28
2023-03-01T18:11:48.544Z,-0.35
2023-03-01T18:14:53.358Z,-0.42
2023-03-01T18:17:53.310Z,-0.46
2023-03-01T18:20:58.355Z,-0.52
2023-03-01T18:24:03.381Z,-0.59
2023-03-01T18:27:08.367Z,-0.65
2023-03-01T18:30:27.333Z,-0.70
2023-03-01T18:33:29.513Z,-0.73
2023-03-01T18:36:39.506Z,-0.78
2023-03-01T18:39:39.330Z,-0.84
2023-03-01T18:42:43.372Z,-0.92
2023-03-01T18:45:44.723Z,-0.99
2023-03-01T18:48:46.553Z,-1.07
2023-03-01T18:51:47.319Z,-1.13
2023-03-01T18:54:47.256Z,-1.20
2023-03-01T18:57:47.460Z,-1.27
2023-03-01T19:00:47.657Z,-1.32
2023-03-01T19:03:48.322Z,-1.37
2023-03-01T19:06:48.400Z,-1.40
2023-03-01T19:09:48.321Z,-1.43
2023-03-01T19:12:49.328Z,-1.45
2023-03-01T19:15:49.375Z,-1.48
2023-03-01T19:19:00.446Z,-1.52
2023-03-01T19:22:06.130Z,-1.57
2023-03-01T19:25:06.332Z,-1.61
2023-03-01T19:28:08.327Z,-1.63
2023-03-01T19:31:42.339Z,-1.66
2023-03-01T19:34:47.756Z,-1.70
2023-03-01T19:37:49.384Z,-1.76
2023-03-01T19:41:01.030Z,-1.81
2023-03-01T19:44:05.396Z,-1.85
2023-03-01T19:47:21.392Z,-1.89
2023-03-01T19:50:25.725Z,-1.92
2023-03-01T19:53:27.589Z,-1.96
2023-03-01T19:56:27.403Z,-1.98
2023-03-01T19:59:30.440Z,-2.00
2023-03-01T20:02:35.582Z,-2.00
2023-03-01T20:05:35.423Z,-2.00
2023-03-01T20:08:43.754Z,-1.97
2023-03-01T20:11:44.438Z,-1.93
2023-03-01T20:14:46.472Z,-1.88
2023-03-01T20:17:49.810Z,-1.80
2023-03-01T20:20:49.657Z,-1.70
2023-03-01T20:23:49.416Z,-1.60
2023-03-01T20:26:49.521Z,-1.52
2023-03-01T20:29:54.773Z,-1.46
2023-03-01T20:32:55.614Z,-1.43
2023-03-01T20:35:56.533Z,-1.42
2023-03-01T20:38:56.440Z,-1.42
2023-03-01T20:42:00.533Z,-1.43
2023-03-01T20:45:37.869Z,-1.42
2023-03-01T20:48:40.502Z,-1.43
2023-03-01T20:51:44.522Z,-1.45
2023-03-01T20:54:45.474Z,-1.45
2023-03-01T20:57:50.167Z,-1.44
2023-03-01T21:00:54.520Z,-1.42
2023-03-01T21:04:00.557Z,-1.42
2023-03-01T21:07:03.847Z,-1.44
2023-03-01T21:10:06.643Z,-1.45
2023-03-01T21:13:17.708Z,-1.43
2023-03-01T21:16:24.444Z,-1.42
2023-03-01T21:19:30.881Z,-1.43
2023-03-01T21:22:32.488Z,-1.41
2023-03-01T21:25:40.635Z,-1.38
2023-03-01T21:28:41.778Z,-1.34
2023-03-01T21:31:46.554Z,-1.29
2023-03-01T21:34:50.562Z,-1.23
2023-03-01T21:37:59.896Z,-1.16
2023-03-01T21:41:00.552Z,-1.09
2023-03-01T21:44:07.709Z,-1.02
2023-03-01T21:47:10.622Z,-0.94
2023-03-01T21:50:22.181Z,-0.85
2023-03-01T21:53:27.656Z,-0.77
2023-03-01T21:56:40.706Z,-0.71
2023-03-01T21:59:44.749Z,-0.65
2023-03-01T22:02:46.788Z,-0.61
2023-03-01T22:05:48.656Z,-0.57
2023-03-01T22:08:49.619Z,-0.53
2023-03-01T22:12:00.881Z,-0.50
2023-03-01T22:15:05.783Z,-0.46
2023-03-01T22:18:09.654Z,-0.42
2023-03-01T22:21:10.584Z,-0.39
2023-03-01T22:24:11.676Z,-0.37
2023-03-01T22:27:13.881Z,-0.34
2023-03-01T22:30:20.278Z,-0.33
2023-03-01T22:33:21.904Z,-0.32
2023-03-01T22:36:22.814Z,-0.30
2023-03-01T22:39:23.628Z,-0.30
2023-03-01T22:42:28.639Z,-0.29
2023-03-01T22:45:29.741Z,-0.29
2023-03-01T22:48:30.641Z,-0.30
2023-03-01T22:51:44.059Z,-0.32
2023-03-01T22:54:50.730Z,-0.34
2023-03-01T22:57:54.699Z,-0.37
2023-03-01T23:00:54.952Z,-0.39
2023-03-01T23:03:57.700Z,-0.40
2023-03-01T23:07:00.892Z,-0.39
2023-03-01T23:10:02.244Z,-0.38
2023-03-01T23:13:08.358Z,-0.36
2023-03-01T23:16:12.879Z,-0.36
2023-03-01T23:19:12.652Z,-0.36
2023-03-01T23:22:15.180Z,-0.36
2023-03-01T23:25:20.712Z,-0.36
2023-03-01T23:28:22.700Z,-0.37
2023-03-01T23:31:27.117Z,-0.37
2023-03-01T23:34:28.783Z,-0.37
2023-03-01T23:37:28.731Z,-0.36
2023-03-01T23:40:28.766Z,-0.35
2023-03-01T23:43:28.755Z,-0.35
2023-03-01T23:46:29.739Z,-0.34
2023-03-01T23:49:31.760Z,-0.33
2023-03-01T23:52:32.704Z,-0.35
2023-03-01T23:55:35.011Z,-0.35
2023-03-01T23:58:35.999Z,-0.36
